createdAt,value
2022-08-03T00:01:44.730Z,4.88
2022-08-03T00:04:13.238Z,4.10
2022-08-03T00:06:41.109Z,4.47
2022-08-03T00:09:10.742Z,4.00
2022-08-03T00:11:39.409Z,4.05
2022-08-03T00:14:08.268Z,3.60
2022-08-03T00:16:36.268Z,4.18
2022-08-03T00:19:04.580Z,3.92
2022-08-03T00:21:32.459Z,4.10
2022-08-03T00:24:00.266Z,4.35
2022-08-03T00:26:29.567Z,4.00
2022-08-03T00:28:57.512Z,4.20
2022-08-03T00:31:39.791Z,4.32
2022-08-03T00:34:13.232Z,3.80
2022-08-03T00:36:41.429Z,4.00
2022-08-03T00:39:09.694Z,4.28
2022-08-03T00:41:39.006Z,3.80
2022-08-03T00:44:06.905Z,4.03
2022-08-03T00:46:34.750Z,4.40
2022-08-03T00:49:03.401Z,4.47
2022-08-03T00:51:31.365Z,4.45
2022-08-03T00:53:59.213Z,4.72
2022-08-03T00:56:27.828Z,4.40
2022-08-03T00:58:58.755Z,4.55
2022-08-03T01:01:26.633Z,4.05
2022-08-03T01:04:00.037Z,4.32
2022-08-03T01:06:35.351Z,3.97
2022-08-03T01:09:10.580Z,4.68
2022-08-03T01:11:59.907Z,4.40
2022-08-03T01:14:35.534Z,4.30
2022-08-03T01:17:08.591Z,4.45
2022-08-03T01:19:47.673Z,4.90
2022-08-03T01:22:29.715Z,4.10
2022-08-03T01:25:04.235Z,4.65
2022-08-03T01:27:44.491Z,4.80
2022-08-03T01:30:14.133Z,4.80
2022-08-03T01:32:54.491Z,5.63
2022-08-03T01:35:35.516Z,5.80
2022-08-03T01:38:11.114Z,4.80
2022-08-03T01:43:12.783Z,5.30
2022-08-03T01:45:44.955Z,4.93
2022-08-03T01:48:13.864Z,5.25
2022-08-03T01:50:42.141Z,4.22
2022-08-03T01:53:11.039Z,4.63
2022-08-03T01:55:41.207Z,4.85
2022-08-03T01:58:09.686Z,4.28
2022-08-03T02:00:38.873Z,4.53
2022-08-03T02:03:09.446Z,5.15
2022-08-03T02:05:39.060Z,4.95
2022-08-03T02:08:10.136Z,3.95
2022-08-03T02:10:39.078Z,4.85
2022-08-03T02:13:09.751Z,5.20
2022-08-03T02:15:38.982Z,4.60
2022-08-03T02:18:10.644Z,5.00
2022-08-03T02:20:39.869Z,4.85
2022-08-03T02:23:08.008Z,5.03
2022-08-03T02:25:40.037Z,4.80
2022-08-03T02:28:13.127Z,4.90
2022-08-03T02:30:44.563Z,5.00
2022-08-03T02:33:19.815Z,4.88
2022-08-03T02:35:48.786Z,4.40
2022-08-03T02:38:20.462Z,4.82
2022-08-03T02:40:48.714Z,4.60
2022-08-03T02:43:19.170Z,4.50
2022-08-03T02:45:49.233Z,4.45
2022-08-03T02:48:22.701Z,9.30
2022-08-03T02:50:52.910Z,5.07
2022-08-03T02:53:22.445Z,5.15
2022-08-03T02:55:51.261Z,4.45
2022-08-03T02:58:21.698Z,4.85
2022-08-03T03:00:51.771Z,4.90
2022-08-03T03:03:23.315Z,4.85
2022-08-03T03:05:57.615Z,4.30
2022-08-03T04:02:43.720Z,8.40
2022-08-03T04:10:27.439Z,5.72
2022-08-03T04:12:17.562Z,4.95
2022-08-03T04:18:51.769Z,5.38
2022-08-03T04:22:33.325Z,6.00
2022-08-03T04:26:11.757Z,6.18
2022-08-03T04:30:05.784Z,6.30
2022-08-03T04:33:23.031Z,6.53
2022-08-03T04:40:29.877Z,5.70
2022-08-03T04:54:16.170Z,6.05
2022-08-03T05:03:25.217Z,6.33
2022-08-03T05:06:11.490Z,6.30
2022-08-03T05:09:49.927Z,6.45
2022-08-03T05:14:49.807Z,6.03
2022-08-03T05:17:48.496Z,6.22
2022-08-03T05:20:56.935Z,5.72
2022-08-03T05:23:32.228Z,6.05
2022-08-03T05:26:30.987Z,5.50
2022-08-03T05:31:12.738Z,5.82
2022-08-03T05:32:40.404Z,6.40
2022-08-03T05:39:35.357Z,5.78
2022-08-03T05:47:52.617Z,6.63
2022-08-03T05:51:26.278Z,7.07
2022-08-03T06:03:40.380Z,8.32
2022-08-03T06:06:00.195Z,7.75
2022-08-03T06:12:27.235Z,7.47
2022-08-03T06:19:19.750Z,8.02
2022-08-03T06:22:35.971Z,7.65
2022-08-03T06:28:53.247Z,7.60
2022-08-03T06:31:33.359Z,8.15
2022-08-03T06:34:31.357Z,8.18
2022-08-03T06:37:29.554Z,8.30
2022-08-03T06:40:21.602Z,8.45
2022-08-03T06:42:56.794Z,8.38
2022-08-03T06:45:41.155Z,8.60
2022-08-03T06:48:33.040Z,7.72
2022-08-03T06:52:04.955Z,7.47
2022-08-03T06:54:25.100Z,7.10
2022-08-03T06:57:24.569Z,5.90
2022-08-03T07:01:03.437Z,6.43
2022-08-03T07:03:04.661Z,6.00
2022-08-03T07:05:58.692Z,5.68
2022-08-03T07:08:34.473Z,6.50
2022-08-03T07:11:22.377Z,6.40
2022-08-03T07:14:28.310Z,5.88
2022-08-03T07:16:57.200Z,5.47
2022-08-03T07:19:33.029Z,5.38
2022-08-03T07:22:24.852Z,4.78
2022-08-03T07:25:09.111Z,5.18
2022-08-03T07:27:40.944Z,5.22
2022-08-03T07:30:28.682Z,4.95
2022-08-03T07:33:11.100Z,4.00
2022-08-03T07:35:50.997Z,4.20
2022-08-03T07:38:28.489Z,3.60
2022-08-03T07:41:13.102Z,3.92
2022-08-03T07:45:43.846Z,3.90
2022-08-03T07:47:07.248Z,3.60
2022-08-03T07:49:55.809Z,3.40
2022-08-03T07:56:03.313Z,3.75
2022-08-03T07:58:54.116Z,3.00
2022-08-03T08:01:39.546Z,3.03
2022-08-03T08:05:05.465Z,3.20
2022-08-03T08:10:30.930Z,3.05
2022-08-03T08:13:54.470Z,2.70
2022-08-03T08:16:40.777Z,2.88
2022-08-03T08:19:23.567Z,2.53
2022-08-03T08:22:48.912Z,2.80
2022-08-03T08:25:58.925Z,2.70
2022-08-03T08:28:57.983Z,2.65
2022-08-03T08:35:05.414Z,2.90
2022-08-03T08:41:53.477Z,3.40
2022-08-03T08:45:14.834Z,4.20
2022-08-03T08:48:29.941Z,2.72
2022-08-03T08:51:59.318Z,2.55
2022-08-03T08:54:27.648Z,2.80
2022-08-03T08:57:49.049Z,2.60
2022-08-03T09:00:29.410Z,2.60
2022-08-03T09:03:51.211Z,2.80
2022-08-03T09:10:11.279Z,3.58
2022-08-03T09:12:53.362Z,2.63
2022-08-03T09:15:57.164Z,2.97
2022-08-03T09:18:32.295Z,2.33
2022-08-03T09:21:31.599Z,2.40
2022-08-03T09:24:41.087Z,2.60
2022-08-03T09:27:38.305Z,2.60
2022-08-03T09:30:34.381Z,2.35
2022-08-03T09:33:10.565Z,2.38
2022-08-03T09:35:54.811Z,2.30
2022-08-03T09:38:43.653Z,2.20
2022-08-03T09:41:28.987Z,1.98
2022-08-03T09:44:03.580Z,2.28
2022-08-03T09:46:38.066Z,2.10
2022-08-03T09:49:23.682Z,2.30
2022-08-03T09:52:32.193Z,2.10
2022-08-03T09:56:33.541Z,1.88
2022-08-03T09:59:30.684Z,1.73
2022-08-03T10:02:33.148Z,1.90
2022-08-03T10:08:40.773Z,2.28
2022-08-03T10:11:50.140Z,1.75
2022-08-03T10:14:50.709Z,1.90
2022-08-03T10:23:33.164Z,1.75
2022-08-03T10:26:22.684Z,1.73
2022-08-03T10:29:22.523Z,1.83
2022-08-03T10:32:24.264Z,1.88
2022-08-03T10:35:20.044Z,2.47
2022-08-03T10:41:59.944Z,1.75
2022-08-03T10:45:28.485Z,3.15
2022-08-03T10:51:48.336Z,2.17
2022-08-03T10:55:09.962Z,1.95
2022-08-03T10:58:30.685Z,1.80
2022-08-03T11:01:23.423Z,2.20
2022-08-03T11:04:58.799Z,1.70
2022-08-03T11:08:07.354Z,2.00
2022-08-03T11:14:10.904Z,2.10
2022-08-03T11:17:33.048Z,1.70
2022-08-03T11:20:15.288Z,1.80
2022-08-03T11:24:02.850Z,1.95
2022-08-03T11:26:51.358Z,1.70
2022-08-03T11:30:08.316Z,1.85
2022-08-03T11:33:55.418Z,1.80
2022-08-03T11:36:31.976Z,1.80
2022-08-03T11:39:57.417Z,1.90
2022-08-03T11:43:40.477Z,1.80
2022-08-03T12:10:25.931Z,1.50
2022-08-03T12:12:56.992Z,2.28
2022-08-03T12:15:27.309Z,1.88
2022-08-03T12:17:57.844Z,1.90
2022-08-03T12:20:34.480Z,1.70
2022-08-03T12:23:07.111Z,1.50
2022-08-03T12:28:28.365Z,1.60
2022-08-03T12:31:03.207Z,1.40
2022-08-03T12:33:31.288Z,1.60
2022-08-03T12:36:08.314Z,1.55
2022-08-03T12:38:39.565Z,2.08
2022-08-03T12:41:13.504Z,1.67
2022-08-03T12:43:50.035Z,1.20
2022-08-03T12:46:18.971Z,1.38
2022-08-03T12:49:08.969Z,1.58
2022-08-03T12:51:39.238Z,1.90
2022-08-03T12:54:07.599Z,1.50
2022-08-03T12:56:37.015Z,1.80
2022-08-03T12:59:25.773Z,2.13
2022-08-03T13:02:04.370Z,1.85
2022-08-03T13:04:34.819Z,1.50
2022-08-03T13:07:04.173Z,1.80
2022-08-03T13:09:42.648Z,1.25
2022-08-03T13:12:13.576Z,1.73
2022-08-03T13:14:41.886Z,1.80
2022-08-03T13:17:09.855Z,1.38
2022-08-03T13:19:39.563Z,1.80
2022-08-03T13:22:15.157Z,1.40
2022-08-03T13:24:43.881Z,1.40
2022-08-03T13:28:02.565Z,1.30
2022-08-03T13:30:02.167Z,1.40
2022-08-03T13:32:29.915Z,1.40
2022-08-03T13:34:57.723Z,1.40
2022-08-03T13:37:26.564Z,1.85
2022-08-03T13:40:00.331Z,1.30
2022-08-03T13:42:34.017Z,1.98
2022-08-03T13:45:02.614Z,1.50
2022-08-03T13:47:30.479Z,1.40
2022-08-03T13:50:01.437Z,1.42
2022-08-03T13:52:31.388Z,2.55
2022-08-03T13:54:59.833Z,1.30
2022-08-03T13:58:04.380Z,1.45
2022-08-03T14:00:27.987Z,1.58
2022-08-03T14:03:05.063Z,1.50
2022-08-03T14:05:38.475Z,1.20
2022-08-03T14:08:07.233Z,1.30
2022-08-03T14:10:36.633Z,1.30
2022-08-03T14:13:04.964Z,1.10
2022-08-03T14:15:37.790Z,1.30
2022-08-03T14:18:06.965Z,1.60
2022-08-03T14:20:36.587Z,1.50
2022-08-03T14:23:12.968Z,1.17
2022-08-03T14:25:49.894Z,1.38
2022-08-03T14:28:20.259Z,1.33
2022-08-03T14:30:49.643Z,2.75
2022-08-03T14:33:17.516Z,1.55
2022-08-03T14:35:46.699Z,3.10
2022-08-03T14:38:14.859Z,1.45
2022-08-03T14:40:43.251Z,8.25
2022-08-03T14:43:11.223Z,16.58
2022-08-03T14:45:39.684Z,1.70
2022-08-03T14:50:30.652Z,2.28
2022-08-03T14:50:57.009Z,1.52
2022-08-03T14:53:24.947Z,1.30
2022-08-03T14:55:53.427Z,1.30
2022-08-03T14:58:22.057Z,3.97
2022-08-03T15:00:51.389Z,2.33
2022-08-03T15:03:23.682Z,1.30
2022-08-03T15:05:52.878Z,1.35
2022-08-03T15:08:21.028Z,1.55
2022-08-03T15:10:49.386Z,1.60
2022-08-03T15:13:17.911Z,1.35
2022-08-03T15:15:45.827Z,1.35
2022-08-03T15:18:13.615Z,1.20
2022-08-03T15:20:45.949Z,1.20
2022-08-03T15:23:15.098Z,3.30
2022-08-03T15:26:30.091Z,1.30
2022-08-03T15:28:31.400Z,1.20
2022-08-03T15:30:59.314Z,1.27
2022-08-03T15:33:27.271Z,1.20
2022-08-03T15:35:57.302Z,2.25
2022-08-03T15:38:25.912Z,1.98
2022-08-03T15:40:55.422Z,6.05
2022-08-03T15:43:23.386Z,1.55
2022-08-03T15:46:12.621Z,6.30
2022-08-03T15:48:39.319Z,3.80
2022-08-03T15:51:09.288Z,2.55
2022-08-03T15:53:37.396Z,1.80
2022-08-03T15:56:12.152Z,1.55
2022-08-03T15:59:03.433Z,1.90
2022-08-03T16:01:31.253Z,1.50
2022-08-03T16:03:59.026Z,1.30
2022-08-03T16:06:35.277Z,1.50
2022-08-03T16:09:24.174Z,1.83
2022-08-03T16:11:54.378Z,2.17
2022-08-03T16:14:34.235Z,1.65
2022-08-03T16:17:06.022Z,1.65
2022-08-03T16:19:33.970Z,1.80
2022-08-03T16:22:04.936Z,2.40
2022-08-03T16:24:34.049Z,2.17
2022-08-03T16:29:35.751Z,2.25
2022-08-03T16:32:09.315Z,13.63
2022-08-03T16:34:38.081Z,8.75
2022-08-03T16:37:35.363Z,5.50
2022-08-03T16:39:55.800Z,3.28
2022-08-03T16:42:23.620Z,1.90
2022-08-03T16:44:51.405Z,1.73
2022-08-03T16:47:21.817Z,2.00
2022-08-03T16:49:53.743Z,3.03
2022-08-03T16:52:26.415Z,1.92
2022-08-03T16:54:54.773Z,2.00
2022-08-03T16:57:56.307Z,1.90
2022-08-03T17:00:33.247Z,1.98
2022-08-03T17:03:04.124Z,2.00
2022-08-03T17:05:47.006Z,2.03
2022-08-03T17:08:26.255Z,1.90
2022-08-03T17:10:55.663Z,2.08
2022-08-03T17:13:27.726Z,1.90
2022-08-03T17:16:12.086Z,2.20
2022-08-03T17:18:48.308Z,1.80
2022-08-03T17:21:23.812Z,2.10
2022-08-03T17:24:00.013Z,2.00
2022-08-03T17:26:30.468Z,1.98
2022-08-03T17:29:11.109Z,1.92
2022-08-03T17:31:49.436Z,2.67
2022-08-03T17:34:18.895Z,2.22
2022-08-03T17:37:03.730Z,2.15
2022-08-03T17:39:58.700Z,2.10
2022-08-03T17:42:30.213Z,1.98
2022-08-03T17:45:02.287Z,1.80
2022-08-03T17:47:42.088Z,1.90
2022-08-03T17:50:23.929Z,2.17
2022-08-03T17:53:07.306Z,2.10
2022-08-03T17:55:55.830Z,2.03
2022-08-03T17:58:38.093Z,1.90
2022-08-03T18:01:59.274Z,1.77
2022-08-03T18:04:30.351Z,2.20
2022-08-03T18:07:00.508Z,2.10
2022-08-03T18:10:03.508Z,2.10
2022-08-03T18:12:51.760Z,2.08
2022-08-03T18:15:29.546Z,2.00
2022-08-03T18:18:10.297Z,2.17
2022-08-03T18:20:42.701Z,2.10
2022-08-03T18:23:24.866Z,2.28
2022-08-03T18:26:04.812Z,2.30
2022-08-03T18:28:35.900Z,2.13
2022-08-03T18:31:05.670Z,2.35
2022-08-03T18:34:16.659Z,2.08
2022-08-03T18:36:30.620Z,2.28
2022-08-03T18:39:00.436Z,2.40
2022-08-03T18:44:08.719Z,2.42
2022-08-03T18:46:54.897Z,2.30
2022-08-03T18:49:36.745Z,2.15
2022-08-03T18:52:12.137Z,1.85
2022-08-03T18:55:03.867Z,2.63
2022-08-03T18:57:43.162Z,2.30
2022-08-03T19:00:15.658Z,2.30
2022-08-03T19:02:50.229Z,2.33
2022-08-03T19:05:21.611Z,2.47
2022-08-03T19:07:58.465Z,2.05
2022-08-03T19:10:57.776Z,2.30
2022-08-03T19:13:36.126Z,2.70
2022-08-03T19:16:15.626Z,2.72
2022-08-03T19:18:49.653Z,2.40
2022-08-03T19:21:18.067Z,2.70
2022-08-03T19:23:46.543Z,2.20
2022-08-03T19:29:15.190Z,3.72
2022-08-03T19:31:58.784Z,3.05
2022-08-03T19:34:30.187Z,2.60
2022-08-03T19:36:58.811Z,2.92
2022-08-03T19:39:26.996Z,3.03
2022-08-03T19:42:08.093Z,2.53
2022-08-03T19:44:40.932Z,2.55
2022-08-03T19:47:17.088Z,2.50
2022-08-03T19:50:06.254Z,2.67
2022-08-03T19:52:51.945Z,2.40
2022-08-03T19:55:22.975Z,2.63
2022-08-03T19:57:57.848Z,2.20
2022-08-03T20:00:38.108Z,2.83
2022-08-03T20:03:19.646Z,2.55
2022-08-03T20:05:54.159Z,2.33
2022-08-03T20:08:23.421Z,2.28
2022-08-03T20:10:57.773Z,2.50
2022-08-03T20:13:28.398Z,2.78
2022-08-03T20:15:56.318Z,2.30
2022-08-03T20:18:26.403Z,2.30
2022-08-03T20:20:55.639Z,2.55
2022-08-03T20:23:25.776Z,2.40
2022-08-03T20:26:05.463Z,2.23
2022-08-03T20:31:23.811Z,2.40
2022-08-03T20:34:01.948Z,2.42
2022-08-03T20:36:30.304Z,1.98
2022-08-03T20:38:59.737Z,2.40
2022-08-03T20:41:27.828Z,2.50
2022-08-03T20:44:00.839Z,2.58
2022-08-03T20:46:41.389Z,2.42
2022-08-03T20:49:19.500Z,2.40
2022-08-03T20:51:52.584Z,2.10
2022-08-03T20:54:31.102Z,2.42
2022-08-03T20:57:03.704Z,2.58
2022-08-03T20:59:47.345Z,2.88
2022-08-03T21:02:29.882Z,2.40
2022-08-03T21:05:03.505Z,2.40
2022-08-03T21:08:04.301Z,2.40
2022-08-03T21:10:30.456Z,2.78
2022-08-03T21:13:02.202Z,2.35
2022-08-03T21:13:15.488Z,2.33
2022-08-03T21:16:04.760Z,2.35
2022-08-03T21:18:38.785Z,2.38
2022-08-03T21:21:11.158Z,2.30
2022-08-03T21:23:49.007Z,2.33
2022-08-03T21:26:19.144Z,2.33
2022-08-03T21:28:47.984Z,2.63
2022-08-03T21:31:24.860Z,1.98
2022-08-03T21:33:55.501Z,2.00
2022-08-03T21:36:25.491Z,2.33
2022-08-03T21:38:57.050Z,2.30
2022-08-03T21:41:26.184Z,2.50
2022-08-03T21:43:53.922Z,2.20
2022-08-03T21:46:23.944Z,2.60
2022-08-03T21:48:56.116Z,2.30
2022-08-03T21:51:26.929Z,2.60
2022-08-03T21:54:03.606Z,2.53
2022-08-03T21:56:37.177Z,2.25
2022-08-03T21:59:07.669Z,2.40
2022-08-03T22:01:37.018Z,2.40
2022-08-03T22:04:07.103Z,2.67
2022-08-03T22:06:36.445Z,2.95
2022-08-03T22:09:06.716Z,2.70
2022-08-03T22:11:35.060Z,2.58
2022-08-03T22:14:02.995Z,2.85
2022-08-03T22:16:30.839Z,2.88
2022-08-03T22:18:58.612Z,2.80
2022-08-03T22:21:36.367Z,2.80
2022-08-03T22:24:07.400Z,2.97
2022-08-03T22:26:37.074Z,2.90
2022-08-03T22:29:08.903Z,2.95
2022-08-03T22:31:57.446Z,2.65
2022-08-03T22:34:27.442Z,2.85
2022-08-03T22:37:00.141Z,2.80
2022-08-03T22:39:30.598Z,2.65
2022-08-03T22:41:59.211Z,2.78
2022-08-03T22:44:27.546Z,2.70
2022-08-03T22:46:56.490Z,2.63
2022-08-03T22:49:24.872Z,2.65
2022-08-03T22:51:53.156Z,2.58
2022-08-03T22:54:20.994Z,2.80
2022-08-03T22:56:50.998Z,3.05
2022-08-03T22:59:39.283Z,2.97
2022-08-03T23:02:20.562Z,3.20
2022-08-03T23:07:31.239Z,2.72
2022-08-03T23:10:01.634Z,2.78
2022-08-03T23:12:33.847Z,2.47
2022-08-03T23:15:03.277Z,2.47
2022-08-03T23:17:32.694Z,2.50
2022-08-03T23:20:04.067Z,2.40
2022-08-03T23:22:32.311Z,10.82
2022-08-03T23:25:03.554Z,2.92
2022-08-03T23:27:33.994Z,2.65
2022-08-03T23:30:02.966Z,2.70
2022-08-03T23:32:31.756Z,2.25
2022-08-03T23:35:19.371Z,2.50
2022-08-03T23:38:04.006Z,2.60
2022-08-03T23:40:37.965Z,2.90
2022-08-03T23:43:07.994Z,2.35
2022-08-03T23:45:45.585Z,2.35
2022-08-03T23:48:13.707Z,2.28
2022-08-03T23:50:46.084Z,2.60
2022-08-03T23:53:19.242Z,2.72
2022-08-03T23:55:57.012Z,2.72
2022-08-03T23:58:39.828Z,2.90
